sensor_id;sensor_type;location;lat;lon;timestamp;P1;durP1;ratioP1;P2;durP2;ratioP2
58466;SDS011;44255;49.244;7.726;2023-03-23T04:33:08;2.22;;;1.38;;
58466;SDS011;44255;49.244;7.726;2023-03-23T04:35:39;1.40;;;1.25;;
58466;SDS011;44255;49.244;7.726;2023-03-23T04:38:04;4.63;;;1.40;;
58466;SDS011;44255;49.244;7.726;2023-03-23T04:40:30;4.53;;;1.47;;
58466;SDS011;44255;49.244;7.726;2023-03-23T04:42:55;2.47;;;1.63;;
58466;SDS011;44255;49.244;7.726;2023-03-23T04:45:22;1.80;;;1.27;;
58466;SDS011;44255;49.244;7.726;2023-03-23T04:47:51;2.57;;;1.13;;
58466;SDS011;44255;49.244;7.726;2023-03-23T04:50:22;2.25;;;1.42;;
58466;SDS011;44255;49.244;7.726;2023-03-23T04:52:49;3.30;;;1.55;;
58466;SDS011;44255;49.244;7.726;2023-03-23T04:55:16;1.77;;;1.33;;
58466;SDS011;44255;49.244;7.726;2023-03-23T04:57:42;2.35;;;1.40;;
58466;SDS011;44255;49.244;7.726;2023-03-23T05:00:09;3.25;;;1.48;;
58466;SDS011;44255;49.244;7.726;2023-03-23T05:02:41;2.88;;;1.40;;
58466;SDS011;44255;49.244;7.726;2023-03-23T05:05:07;3.05;;;1.40;;
58466;SDS011;44255;49.244;7.726;2023-03-23T05:07:35;2.53;;;1.58;;
58466;SDS011;44255;49.244;7.726;2023-03-23T05:10:02;2.47;;;1.38;;
58466;SDS011;44255;49.244;7.726;2023-03-23T05:12:28;3.25;;;1.50;;
58466;SDS011;44255;49.244;7.726;2023-03-23T05:14:53;2.30;;;1.50;;
58466;SDS011;44255;49.244;7.726;2023-03-23T05:17:19;1.88;;;1.40;;
58466;SDS011;44255;49.244;7.726;2023-03-23T05:19:44;1.57;;;1.23;;
58466;SDS011;44255;49.244;7.726;2023-03-23T05:22:12;2.05;;;1.52;;
58466;SDS011;44255;49.244;7.726;2023-03-23T05:24:39;2.13;;;1.70;;
58466;SDS011;44255;49.244;7.726;2023-03-23T05:27:04;4.65;;;1.67;;
58466;SDS011;44255;49.244;7.726;2023-03-23T05:29:32;3.72;;;1.40;;
58466;SDS011;44255;49.244;7.726;2023-03-23T05:32:01;1.90;;;1.17;;
58466;SDS011;44255;49.244;7.726;2023-03-23T05:34:27;3.05;;;1.90;;
58466;SDS011;44255;49.244;7.726;2023-03-23T05:36:54;3.58;;;1.63;;
58466;SDS011;44255;49.244;7.726;2023-03-23T05:39:20;2.67;;;1.65;;
58466;SDS011;44255;49.244;7.726;2023-03-23T05:41:45;3.58;;;1.60;;
58466;SDS011;44255;49.244;7.726;2023-03-23T05:44:11;2.47;;;1.70;;
58466;SDS011;44255;49.244;7.726;2023-03-23T05:46:38;2.97;;;1.58;;
58466;SDS011;44255;49.244;7.726;2023-03-23T05:49:03;2.22;;;1.77;;
58466;SDS011;44255;49.244;7.726;2023-03-23T05:51:29;3.53;;;1.60;;
58466;SDS011;44255;49.244;7.726;2023-03-23T05:53:54;2.90;;;1.67;;
58466;SDS011;44255;49.244;7.726;2023-03-23T05:56:20;2.63;;;1.40;;
58466;SDS011;44255;49.244;7.726;2023-03-23T05:58:46;2.58;;;1.52;;
58466;SDS011;44255;49.244;7.726;2023-03-23T06:01:11;2.47;;;1.50;;
58466;SDS011;44255;49.244;7.726;2023-03-23T06:03:39;2.58;;;1.42;;
58466;SDS011;44255;49.244;7.726;2023-03-23T06:06:04;2.72;;;1.40;;
58466;SDS011;44255;49.244;7.726;2023-03-23T06:08:30;3.63;;;1.70;;
58466;SDS011;44255;49.244;7.726;2023-03-23T06:10:56;5.10;;;1.70;;
58466;SDS011;44255;49.244;7.726;2023-03-23T06:13:22;3.90;;;1.50;;
58466;SDS011;44255;49.244;7.726;2023-03-23T06:15:48;3.80;;;1.90;;
58466;SDS011;44255;49.244;7.726;2023-03-23T06:18:14;3.85;;;1.67;;
58466;SDS011;44255;49.244;7.726;2023-03-23T06:20:39;3.78;;;1.88;;
58466;SDS011;44255;49.244;7.726;2023-03-23T06:23:05;1.50;;;1.40;;
58466;SDS011;44255;49.244;7.726;2023-03-23T06:25:31;3.05;;;1.70;;
58466;SDS011;44255;49.244;7.726;2023-03-23T06:27:58;2.95;;;1.40;;
58466;SDS011;44255;49.244;7.726;2023-03-23T06:30:23;5.03;;;1.80;;
58466;SDS011;44255;49.244;7.726;2023-03-23T06:32:48;5.82;;;1.95;;
58466;SDS011;44255;49.244;7.726;2023-03-23T06:35:15;3.72;;;2.22;;
58466;SDS011;44255;49.244;7.726;2023-03-23T06:37:41;2.22;;;1.52;;
58466;SDS011;44255;49.244;7.726;2023-03-23T06:40:07;3.58;;;2.00;;
58466;SDS011;44255;49.244;7.726;2023-03-23T06:42:34;3.05;;;1.90;;
58466;SDS011;44255;49.244;7.726;2023-03-23T06:44:59;2.20;;;1.70;;
58466;SDS011;44255;49.244;7.726;2023-03-23T06:47:28;4.40;;;2.15;;
58466;SDS011;44255;49.244;7.726;2023-03-23T06:49:54;2.65;;;1.88;;
58466;SDS011;44255;49.244;7.726;2023-03-23T06:52:20;3.33;;;2.45;;
58466;SDS011;44255;49.244;7.726;2023-03-23T06:54:47;5.50;;;2.15;;
58466;SDS011;44255;49.244;7.726;2023-03-23T06:57:13;2.60;;;2.00;;
58466;SDS011;44255;49.244;7.726;2023-03-23T06:59:38;4.77;;;2.03;;
58466;SDS011;44255;49.244;7.726;2023-03-23T07:02:04;4.83;;;2.27;;
58466;SDS011;44255;49.244;7.726;2023-03-23T07:04:29;3.63;;;2.00;;
58466;SDS011;44255;49.244;7.726;2023-03-23T07:06:55;3.38;;;2.00;;
58466;SDS011;44255;49.244;7.726;2023-03-23T07:09:21;4.93;;;1.95;;
58466;SDS011;44255;49.244;7.726;2023-03-23T07:11:47;3.45;;;2.13;;
58466;SDS011;44255;49.244;7.726;2023-03-23T07:14:12;3.75;;;1.88;;
58466;SDS011;44255;49.244;7.726;2023-03-23T07:16:38;3.58;;;2.22;;
58466;SDS011;44255;49.244;7.726;2023-03-23T07:19:03;3.90;;;2.20;;
58466;SDS011;44255;49.244;7.726;2023-03-23T07:21:28;3.07;;;2.10;;
58466;SDS011;44255;49.244;7.726;2023-03-23T07:23:54;4.97;;;1.93;;
58466;SDS011;44255;49.244;7.726;2023-03-23T07:26:19;3.65;;;2.10;;
58466;SDS011;44255;49.244;7.726;2023-03-23T07:28:44;5.10;;;1.70;;
58466;SDS011;44255;49.244;7.726;2023-03-23T07:31:11;5.55;;;2.88;;
58466;SDS011;44255;49.244;7.726;2023-03-23T07:33:37;12.10;;;5.50;;
58466;SDS011;44255;49.244;7.726;2023-03-23T07:36:02;9.38;;;4.53;;
58466;SDS011;44255;49.244;7.726;2023-03-23T07:38:28;3.55;;;2.53;;
58466;SDS011;44255;49.244;7.726;2023-03-23T07:40:54;3.58;;;2.13;;
58466;SDS011;44255;49.244;7.726;2023-03-23T07:43:21;5.60;;;2.50;;
58466;SDS011;44255;49.244;7.726;2023-03-23T07:45:47;4.10;;;2.50;;
58466;SDS011;44255;49.244;7.726;2023-03-23T07:48:12;5.07;;;2.33;;
58466;SDS011;44255;49.244;7.726;2023-03-23T07:50:38;8.47;;;2.63;;
58466;SDS011;44255;49.244;7.726;2023-03-23T07:53:03;3.20;;;2.27;;
58466;SDS011;44255;49.244;7.726;2023-03-23T07:57:55;3.72;;;2.17;;
58466;SDS011;44255;49.244;7.726;2023-03-23T08:00:22;3.47;;;2.83;;
58466;SDS011;44255;49.244;7.726;2023-03-23T08:02:50;3.25;;;2.10;;
58466;SDS011;44255;49.244;7.726;2023-03-23T08:05:17;3.15;;;2.15;;
58466;SDS011;44255;49.244;7.726;2023-03-23T08:07:43;3.63;;;2.08;;
58466;SDS011;44255;49.244;7.726;2023-03-23T08:10:10;2.90;;;2.20;;
58466;SDS011;44255;49.244;7.726;2023-03-23T08:12:37;3.15;;;2.10;;
58466;SDS011;44255;49.244;7.726;2023-03-23T08:15:04;3.30;;;2.00;;
58466;SDS011;44255;49.244;7.726;2023-03-23T08:17:31;3.20;;;2.10;;
58466;SDS011;44255;49.244;7.726;2023-03-23T08:19:58;5.15;;;2.17;;
58466;SDS011;44255;49.244;7.726;2023-03-23T08:22:23;4.30;;;1.98;;
58466;SDS011;44255;49.244;7.726;2023-03-23T08:24:49;5.13;;;2.55;;
58466;SDS011;44255;49.244;7.726;2023-03-23T08:27:15;3.43;;;2.00;;
58466;SDS011;44255;49.244;7.726;2023-03-23T08:29:40;3.43;;;2.43;;
58466;SDS011;44255;49.244;7.726;2023-03-23T08:32:05;4.13;;;1.98;;
58466;SDS011;44255;49.244;7.726;2023-03-23T08:34:31;2.25;;;1.73;;
58466;SDS011;44255;49.244;7.726;2023-03-23T08:39:22;5.35;;;1.95;;
58466;SDS011;44255;49.244;7.726;2023-03-23T08:41:48;3.00;;;1.80;;
58466;SDS011;44255;49.244;7.726;2023-03-23T08:44:14;3.72;;;2.20;;
58466;SDS011;44255;49.244;7.726;2023-03-23T08:46:39;3.97;;;2.28;;
58466;SDS011;44255;49.244;7.726;2023-03-23T08:49:05;4.10;;;2.40;;
58466;SDS011;44255;49.244;7.726;2023-03-23T08:51:31;5.25;;;2.53;;
58466;SDS011;44255;49.244;7.726;2023-03-23T08:53:56;5.88;;;2.00;;
58466;SDS011;44255;49.244;7.726;2023-03-23T08:56:22;2.80;;;1.80;;
58466;SDS011;44255;49.244;7.726;2023-03-23T08:58:47;3.17;;;2.47;;
58466;SDS011;44255;49.244;7.726;2023-03-23T09:01:13;7.95;;;2.38;;
58466;SDS011;44255;49.244;7.726;2023-03-23T09:06:06;3.50;;;2.25;;
58466;SDS011;44255;49.244;7.726;2023-03-23T09:08:32;4.82;;;2.70;;
58466;SDS011;44255;49.244;7.726;2023-03-23T09:11:02;4.93;;;2.55;;
58466;SDS011;44255;49.244;7.726;2023-03-23T09:13:28;4.03;;;2.55;;
58466;SDS011;44255;49.244;7.726;2023-03-23T09:18:20;4.15;;;2.45;;
58466;SDS011;44255;49.244;7.726;2023-03-23T09:20:45;6.25;;;2.30;;
58466;SDS011;44255;49.244;7.726;2023-03-23T09:23:11;7.97;;;3.22;;
58466;SDS011;44255;49.244;7.726;2023-03-23T09:25:38;4.00;;;2.70;;
58466;SDS011;44255;49.244;7.726;2023-03-23T09:28:03;5.68;;;3.03;;
58466;SDS011;44255;49.244;7.726;2023-03-23T09:30:30;6.10;;;3.43;;
58466;SDS011;44255;49.244;7.726;2023-03-23T09:32:57;6.32;;;3.17;;
58466;SDS011;44255;49.244;7.726;2023-03-23T09:35:26;7.40;;;3.13;;
58466;SDS011;44255;49.244;7.726;2023-03-23T09:37:53;4.68;;;2.97;;
58466;SDS011;44255;49.244;7.726;2023-03-23T09:43:00;3.53;;;2.67;;
58466;SDS011;44255;49.244;7.726;2023-03-23T09:48:29;6.28;;;3.83;;
58466;SDS011;44255;49.244;7.726;2023-03-23T09:56:52;3.45;;;2.42;;
58466;SDS011;44255;49.244;7.726;2023-03-23T09:59:22;4.72;;;2.63;;
58466;SDS011;44255;49.244;7.726;2023-03-23T10:01:58;4.57;;;3.30;;
58466;SDS011;44255;49.244;7.726;2023-03-23T10:04:52;3.40;;;2.58;;
58466;SDS011;44255;49.244;7.726;2023-03-23T10:07:23;3.72;;;2.70;;
58466;SDS011;44255;49.244;7.726;2023-03-23T10:09:58;5.03;;;2.40;;
58466;SDS011;44255;49.244;7.726;2023-03-23T10:12:36;4.18;;;2.20;;
58466;SDS011;44255;49.244;7.726;2023-03-23T10:15:27;3.60;;;1.88;;
58466;SDS011;44255;49.244;7.726;2023-03-23T10:18:00;3.40;;;2.50;;
58466;SDS011;44255;49.244;7.726;2023-03-23T10:23:41;10.63;;;5.55;;
58466;SDS011;44255;49.244;7.726;2023-03-23T10:31:39;2.83;;;2.28;;
58466;SDS011;44255;49.244;7.726;2023-03-23T10:34:12;3.92;;;2.20;;
58466;SDS011;44255;49.244;7.726;2023-03-23T10:36:50;2.45;;;1.85;;
58466;SDS011;44255;49.244;7.726;2023-03-23T10:39:21;2.03;;;1.70;;
58466;SDS011;44255;49.244;7.726;2023-03-23T10:41:49;3.70;;;2.10;;
58466;SDS011;44255;49.244;7.726;2023-03-23T10:46:46;4.40;;;3.20;;
58466;SDS011;44255;49.244;7.726;2023-03-23T10:49:26;4.78;;;2.13;;
58466;SDS011;44255;49.244;7.726;2023-03-23T10:52:01;3.75;;;2.30;;
58466;SDS011;44255;49.244;7.726;2023-03-23T10:54:36;2.65;;;2.30;;
58466;SDS011;44255;49.244;7.726;2023-03-23T10:57:20;3.20;;;2.25;;
58466;SDS011;44255;49.244;7.726;2023-03-23T10:59:48;4.25;;;2.60;;
58466;SDS011;44255;49.244;7.726;2023-03-23T11:02:16;3.70;;;3.00;;
58466;SDS011;44255;49.244;7.726;2023-03-23T11:04:53;3.75;;;2.70;;
58466;SDS011;44255;49.244;7.726;2023-03-23T11:07:24;3.17;;;1.80;;
58466;SDS011;44255;49.244;7.726;2023-03-23T11:09:53;4.82;;;2.70;;
58466;SDS011;44255;49.244;7.726;2023-03-23T11:12:20;2.72;;;1.85;;
58466;SDS011;44255;49.244;7.726;2023-03-23T11:14:48;1.95;;;1.77;;
58466;SDS011;44255;49.244;7.726;2023-03-23T11:17:24;2.45;;;2.10;;
58466;SDS011;44255;49.244;7.726;2023-03-23T11:19:51;2.80;;;1.83;;
58466;SDS011;44255;49.244;7.726;2023-03-23T11:22:26;2.20;;;1.92;;
58466;SDS011;44255;49.244;7.726;2023-03-23T11:24:54;3.15;;;2.40;;
58466;SDS011;44255;49.244;7.726;2023-03-23T11:27:22;2.75;;;2.20;;
58466;SDS011;44255;49.244;7.726;2023-03-23T11:32:17;2.83;;;2.00;;
58466;SDS011;44255;49.244;7.726;2023-03-23T11:34:44;4.05;;;2.28;;
58466;SDS011;44255;49.244;7.726;2023-03-23T11:37:13;2.13;;;1.60;;
58466;SDS011;44255;49.244;7.726;2023-03-23T11:39:54;2.80;;;1.63;;
58466;SDS011;44255;49.244;7.726;2023-03-23T11:45:16;2.78;;;1.98;;
58466;SDS011;44255;49.244;7.726;2023-03-23T11:47:59;3.97;;;2.53;;
58466;SDS011;44255;49.244;7.726;2023-03-23T11:50:35;4.72;;;3.00;;
58466;SDS011;44255;49.244;7.726;2023-03-23T11:53:15;4.35;;;2.38;;
58466;SDS011;44255;49.244;7.726;2023-03-23T11:56:00;2.88;;;2.38;;
58466;SDS011;44255;49.244;7.726;2023-03-23T11:58:31;4.13;;;2.40;;
58466;SDS011;44255;49.244;7.726;2023-03-23T12:04:00;2.92;;;1.42;;
58466;SDS011;44255;49.244;7.726;2023-03-23T12:09:48;4.63;;;2.08;;
58466;SDS011;44255;49.244;7.726;2023-03-23T12:15:52;3.78;;;2.00;;
58466;SDS011;44255;49.244;7.726;2023-03-23T12:21:12;4.50;;;2.85;;
58466;SDS011;44255;49.244;7.726;2023-03-23T12:26:19;4.75;;;2.67;;
58466;SDS011;44255;49.244;7.726;2023-03-23T12:31:38;4.03;;;3.05;;
58466;SDS011;44255;49.244;7.726;2023-03-23T12:47:48;2.65;;;1.90;;
58466;SDS011;44255;49.244;7.726;2023-03-23T12:50:22;3.05;;;2.17;;
58466;SDS011;44255;49.244;7.726;2023-03-23T12:52:50;3.17;;;1.90;;
58466;SDS011;44255;49.244;7.726;2023-03-23T12:58:19;3.83;;;2.10;;
58466;SDS011;44255;49.244;7.726;2023-03-23T13:06:22;3.33;;;1.90;;
58466;SDS011;44255;49.244;7.726;2023-03-23T13:08:59;3.05;;;1.90;;
58466;SDS011;44255;49.244;7.726;2023-03-23T13:11:37;3.15;;;2.00;;
58466;SDS011;44255;49.244;7.726;2023-03-23T13:17:10;3.83;;;1.90;;
58466;SDS011;44255;49.244;7.726;2023-03-23T13:22:59;5.15;;;2.20;;
58466;SDS011;44255;49.244;7.726;2023-03-23T13:28:13;4.10;;;2.13;;
58466;SDS011;44255;49.244;7.726;2023-03-23T13:30:40;2.97;;;1.90;;
58466;SDS011;44255;49.244;7.726;2023-03-23T13:33:06;4.70;;;1.80;;
58466;SDS011;44255;49.244;7.726;2023-03-23T13:35:38;2.88;;;2.05;;
58466;SDS011;44255;49.244;7.726;2023-03-23T13:38:44;3.10;;;2.10;;
58466;SDS011;44255;49.244;7.726;2023-03-23T13:40:58;3.83;;;2.00;;
58466;SDS011;44255;49.244;7.726;2023-03-23T13:43:32;2.83;;;1.95;;
58466;SDS011;44255;49.244;7.726;2023-03-23T13:56:58;5.10;;;3.03;;
58466;SDS011;44255;49.244;7.726;2023-03-23T14:01:52;2.83;;;2.03;;
58466;SDS011;44255;49.244;7.726;2023-03-23T14:04:22;3.08;;;1.90;;
58466;SDS011;44255;49.244;7.726;2023-03-23T14:06:56;3.05;;;2.00;;
58466;SDS011;44255;49.244;7.726;2023-03-23T14:09:26;3.85;;;2.50;;
58466;SDS011;44255;49.244;7.726;2023-03-23T14:14:33;4.18;;;2.20;;
58466;SDS011;44255;49.244;7.726;2023-03-23T14:17:11;6.40;;;4.40;;
58466;SDS011;44255;49.244;7.726;2023-03-23T14:19:39;3.85;;;2.20;;
58466;SDS011;44255;49.244;7.726;2023-03-23T14:22:16;2.85;;;2.00;;
58466;SDS011;44255;49.244;7.726;2023-03-23T14:24:43;3.22;;;2.50;;
58466;SDS011;44255;49.244;7.726;2023-03-23T14:27:12;5.10;;;2.97;;
58466;SDS011;44255;49.244;7.726;2023-03-23T14:29:43;5.97;;;3.17;;
58466;SDS011;44255;49.244;7.726;2023-03-23T14:32:16;4.57;;;3.17;;
58466;SDS011;44255;49.244;7.726;2023-03-23T14:34:46;5.53;;;2.73;;
58466;SDS011;44255;49.244;7.726;2023-03-23T14:37:13;3.13;;;2.60;;
58466;SDS011;44255;49.244;7.726;2023-03-23T14:39:40;4.25;;;2.78;;
58466;SDS011;44255;49.244;7.726;2023-03-23T14:44:45;4.10;;;2.80;;
58466;SDS011;44255;49.244;7.726;2023-03-23T14:47:18;4.07;;;2.40;;
58466;SDS011;44255;49.244;7.726;2023-03-23T14:49:47;3.95;;;3.20;;
58466;SDS011;44255;49.244;7.726;2023-03-23T14:52:18;7.32;;;3.67;;
58466;SDS011;44255;49.244;7.726;2023-03-23T14:54:46;4.75;;;2.65;;
58466;SDS011;44255;49.244;7.726;2023-03-23T14:59:41;5.13;;;2.92;;
58466;SDS011;44255;49.244;7.726;2023-03-23T15:02:13;5.88;;;3.00;;
58466;SDS011;44255;49.244;7.726;2023-03-23T15:04:42;4.70;;;3.17;;
58466;SDS011;44255;49.244;7.726;2023-03-23T15:07:10;5.65;;;3.08;;
58466;SDS011;44255;49.244;7.726;2023-03-23T15:09:40;6.60;;;3.30;;
58466;SDS011;44255;49.244;7.726;2023-03-23T15:12:09;5.05;;;3.17;;
58466;SDS011;44255;49.244;7.726;2023-03-23T15:14:46;5.38;;;3.25;;
58466;SDS011;44255;49.244;7.726;2023-03-23T15:17:18;4.28;;;3.03;;
58466;SDS011;44255;49.244;7.726;2023-03-23T15:19:45;5.43;;;3.25;;
58466;SDS011;44255;49.244;7.726;2023-03-23T15:24:51;4.65;;;3.35;;
58466;SDS011;44255;49.244;7.726;2023-03-23T15:27:28;5.97;;;3.50;;
58466;SDS011;44255;49.244;7.726;2023-03-23T15:29:55;10.02;;;7.65;;
58466;SDS011;44255;49.244;7.726;2023-03-23T15:32:26;5.07;;;3.63;;
58466;SDS011;44255;49.244;7.726;2023-03-23T15:34:54;8.65;;;6.10;;
58466;SDS011;44255;49.244;7.726;2023-03-23T15:37:22;5.60;;;3.47;;
58466;SDS011;44255;49.244;7.726;2023-03-23T15:39:51;5.18;;;3.60;;
58466;SDS011;44255;49.244;7.726;2023-03-23T15:42:21;5.90;;;4.05;;
58466;SDS011;44255;49.244;7.726;2023-03-23T15:47:46;7.10;;;5.18;;
58466;SDS011;44255;49.244;7.726;2023-03-23T15:50:14;6.47;;;4.68;;
58466;SDS011;44255;49.244;7.726;2023-03-23T15:52:44;11.75;;;6.95;;
58466;SDS011;44255;49.244;7.726;2023-03-23T15:55:22;20.67;;;10.90;;
58466;SDS011;44255;49.244;7.726;2023-03-23T15:57:53;23.67;;;13.00;;
58466;SDS011;44255;49.244;7.726;2023-03-23T16:00:20;21.50;;;12.57;;
58466;SDS011;44255;49.244;7.726;2023-03-23T16:02:49;14.48;;;9.20;;
58466;SDS011;44255;49.244;7.726;2023-03-23T16:05:30;11.52;;;7.72;;
58466;SDS011;44255;49.244;7.726;2023-03-23T16:07:57;17.13;;;10.85;;
58466;SDS011;44255;49.244;7.726;2023-03-23T16:10:23;10.70;;;7.80;;
58466;SDS011;44255;49.244;7.726;2023-03-23T16:12:50;7.65;;;4.35;;
58466;SDS011;44255;49.244;7.726;2023-03-23T16:15:16;6.35;;;4.30;;
58466;SDS011;44255;49.244;7.726;2023-03-23T16:17:41;5.88;;;4.00;;
58466;SDS011;44255;49.244;7.726;2023-03-23T16:20:18;5.90;;;4.00;;
58466;SDS011;44255;49.244;7.726;2023-03-23T16:22:45;6.47;;;4.57;;
58466;SDS011;44255;49.244;7.726;2023-03-23T16:27:38;6.72;;;4.18;;
58466;SDS011;44255;49.244;7.726;2023-03-23T16:32:38;38.28;;;22.55;;
58466;SDS011;44255;49.244;7.726;2023-03-23T16:35:04;23.77;;;15.20;;
58466;SDS011;44255;49.244;7.726;2023-03-23T16:37:29;14.52;;;8.40;;
58466;SDS011;44255;49.244;7.726;2023-03-23T16:39:57;10.55;;;6.93;;
58466;SDS011;44255;49.244;7.726;2023-03-23T16:42:22;9.87;;;7.33;;
58466;SDS011;44255;49.244;7.726;2023-03-23T16:44:48;11.93;;;7.70;;
58466;SDS011;44255;49.244;7.726;2023-03-23T16:47:14;10.25;;;7.35;;
58466;SDS011;44255;49.244;7.726;2023-03-23T16:52:06;12.15;;;8.40;;
58466;SDS011;44255;49.244;7.726;2023-03-23T16:54:31;13.67;;;9.17;;
58466;SDS011;44255;49.244;7.726;2023-03-23T16:56:56;13.87;;;9.13;;
58466;SDS011;44255;49.244;7.726;2023-03-23T16:59:21;14.90;;;7.87;;
58466;SDS011;44255;49.244;7.726;2023-03-23T17:01:46;12.37;;;7.87;;
58466;SDS011;44255;49.244;7.726;2023-03-23T17:04:12;13.00;;;8.53;;
58466;SDS011;44255;49.244;7.726;2023-03-23T17:06:37;12.55;;;8.38;;
58466;SDS011;44255;49.244;7.726;2023-03-23T17:09:03;15.30;;;8.97;;
58466;SDS011;44255;49.244;7.726;2023-03-23T17:11:28;13.47;;;9.43;;
58466;SDS011;44255;49.244;7.726;2023-03-23T17:13:53;15.70;;;9.27;;
58466;SDS011;44255;49.244;7.726;2023-03-23T17:16:18;12.53;;;9.03;;
58466;SDS011;44255;49.244;7.726;2023-03-23T17:18:44;12.53;;;8.33;;
58466;SDS011;44255;49.244;7.726;2023-03-23T17:21:09;11.73;;;9.23;;
58466;SDS011;44255;49.244;7.726;2023-03-23T17:23:34;12.37;;;9.53;;
58466;SDS011;44255;49.244;7.726;2023-03-23T17:25:59;19.47;;;12.30;;
58466;SDS011;44255;49.244;7.726;2023-03-23T17:28:25;14.07;;;10.40;;
58466;SDS011;44255;49.244;7.726;2023-03-23T17:30:51;16.30;;;11.50;;
58466;SDS011;44255;49.244;7.726;2023-03-23T17:33:17;21.75;;;13.02;;
58466;SDS011;44255;49.244;7.726;2023-03-23T17:35:44;20.70;;;12.90;;
58466;SDS011;44255;49.244;7.726;2023-03-23T17:38:10;27.98;;;19.75;;
58466;SDS011;44255;49.244;7.726;2023-03-23T17:40:36;31.92;;;23.52;;
58466;SDS011;44255;49.244;7.726;2023-03-23T17:43:01;22.58;;;14.68;;
58466;SDS011;44255;49.244;7.726;2023-03-23T17:45:26;21.87;;;16.60;;
58466;SDS011;44255;49.244;7.726;2023-03-23T17:47:52;24.13;;;16.75;;
58466;SDS011;44255;49.244;7.726;2023-03-23T17:50:17;20.67;;;14.40;;
58466;SDS011;44255;49.244;7.726;2023-03-23T17:52:42;17.63;;;10.43;;
58466;SDS011;44255;49.244;7.726;2023-03-23T17:55:08;17.77;;;10.97;;
58466;SDS011;44255;49.244;7.726;2023-03-23T17:57:33;16.90;;;10.60;;
58466;SDS011;44255;49.244;7.726;2023-03-23T17:59:59;16.45;;;9.43;;
58466;SDS011;44255;49.244;7.726;2023-03-23T18:02:24;22.13;;;12.10;;
58466;SDS011;44255;49.244;7.726;2023-03-23T18:04:49;21.07;;;12.67;;
58466;SDS011;44255;49.244;7.726;2023-03-23T18:07:15;25.27;;;13.97;;
58466;SDS011;44255;49.244;7.726;2023-03-23T18:09:40;23.13;;;13.63;;
58466;SDS011;44255;49.244;7.726;2023-03-23T18:12:05;19.47;;;13.67;;
58466;SDS011;44255;49.244;7.726;2023-03-23T18:14:31;21.83;;;15.30;;
58466;SDS011;44255;49.244;7.726;2023-03-23T18:16:56;18.60;;;12.67;;
58466;SDS011;44255;49.244;7.726;2023-03-23T18:19:21;19.33;;;12.00;;
58466;SDS011;44255;49.244;7.726;2023-03-23T18:21:47;17.80;;;11.73;;
58466;SDS011;44255;49.244;7.726;2023-03-23T18:24:12;17.00;;;10.60;;
58466;SDS011;44255;49.244;7.726;2023-03-23T18:26:37;17.52;;;11.35;;
58466;SDS011;44255;49.244;7.726;2023-03-23T18:29:03;17.77;;;11.50;;
58466;SDS011;44255;49.244;7.726;2023-03-23T18:31:28;21.03;;;12.20;;
58466;SDS011;44255;49.244;7.726;2023-03-23T18:33:53;20.50;;;13.30;;
58466;SDS011;44255;49.244;7.726;2023-03-23T18:36:21;20.65;;;14.63;;
58466;SDS011;44255;49.244;7.726;2023-03-23T18:38:48;20.50;;;12.80;;
58466;SDS011;44255;49.244;7.726;2023-03-23T18:43:40;50.10;;;29.45;;
58466;SDS011;44255;49.244;7.726;2023-03-23T18:46:06;27.75;;;16.05;;
58466;SDS011;44255;49.244;7.726;2023-03-23T18:50:57;194.73;;;88.47;;
58466;SDS011;44255;49.244;7.726;2023-03-23T18:53:25;118.38;;;56.72;;
58466;SDS011;44255;49.244;7.726;2023-03-23T18:58:17;50.63;;;31.17;;
58466;SDS011;44255;49.244;7.726;2023-03-23T19:00:44;44.67;;;20.90;;
58466;SDS011;44255;49.244;7.726;2023-03-23T19:03:10;43.55;;;22.67;;
58466;SDS011;44255;49.244;7.726;2023-03-23T19:05:36;40.78;;;22.52;;
58466;SDS011;44255;49.244;7.726;2023-03-23T19:08:03;39.85;;;24.23;;
58466;SDS011;44255;49.244;7.726;2023-03-23T19:10:30;42.20;;;24.33;;
58466;SDS011;44255;49.244;7.726;2023-03-23T19:12:59;41.80;;;25.63;;
58466;SDS011;44255;49.244;7.726;2023-03-23T19:15:24;37.70;;;23.50;;
58466;SDS011;44255;49.244;7.726;2023-03-23T19:17:50;25.83;;;14.70;;
58466;SDS011;44255;49.244;7.726;2023-03-23T19:20:20;32.10;;;15.65;;
58466;SDS011;44255;49.244;7.726;2023-03-23T19:22:48;32.95;;;14.88;;
58466;SDS011;44255;49.244;7.726;2023-03-23T19:25:14;27.17;;;14.93;;
58466;SDS011;44255;49.244;7.726;2023-03-23T19:27:39;25.95;;;12.98;;
58466;SDS011;44255;49.244;7.726;2023-03-23T19:30:06;40.15;;;16.35;;
58466;SDS011;44255;49.244;7.726;2023-03-23T19:32:32;27.63;;;14.75;;
58466;SDS011;44255;49.244;7.726;2023-03-23T19:34:58;33.58;;;16.45;;
58466;SDS011;44255;49.244;7.726;2023-03-23T19:37:23;27.43;;;14.93;;
58466;SDS011;44255;49.244;7.726;2023-03-23T19:39:48;19.67;;;13.40;;
58466;SDS011;44255;49.244;7.726;2023-03-23T19:42:13;23.00;;;15.63;;
58466;SDS011;44255;49.244;7.726;2023-03-23T19:44:42;22.73;;;15.55;;
58466;SDS011;44255;49.244;7.726;2023-03-23T19:47:07;20.43;;;13.43;;
58466;SDS011;44255;49.244;7.726;2023-03-23T19:49:33;24.40;;;16.45;;
58466;SDS011;44255;49.244;7.726;2023-03-23T19:51:59;26.58;;;17.13;;
58466;SDS011;44255;49.244;7.726;2023-03-23T19:54:24;41.27;;;21.23;;
58466;SDS011;44255;49.244;7.726;2023-03-23T19:56:49;44.43;;;22.07;;
58466;SDS011;44255;49.244;7.726;2023-03-23T19:59:15;31.20;;;18.83;;
58466;SDS011;44255;49.244;7.726;2023-03-23T20:01:41;25.65;;;16.67;;
58466;SDS011;44255;49.244;7.726;2023-03-23T20:04:08;26.33;;;17.35;;
58466;SDS011;44255;49.244;7.726;2023-03-23T20:06:34;25.58;;;17.80;;
58466;SDS011;44255;49.244;7.726;2023-03-23T20:08:59;22.48;;;17.33;;
58466;SDS011;44255;49.244;7.726;2023-03-23T20:11:25;21.70;;;16.55;;
58466;SDS011;44255;49.244;7.726;2023-03-23T20:13:50;34.10;;;21.63;;
58466;SDS011;44255;49.244;7.726;2023-03-23T20:16:16;51.73;;;34.53;;
58466;SDS011;44255;49.244;7.726;2023-03-23T20:18:42;45.17;;;31.55;;
58466;SDS011;44255;49.244;7.726;2023-03-23T20:21:08;44.30;;;31.35;;
58466;SDS011;44255;49.244;7.726;2023-03-23T20:23:36;49.97;;;36.25;;
58466;SDS011;44255;49.244;7.726;2023-03-23T20:26:07;41.92;;;30.23;;
58466;SDS011;44255;49.244;7.726;2023-03-23T20:28:34;28.35;;;19.75;;
58466;SDS011;44255;49.244;7.726;2023-03-23T20:31:01;26.38;;;19.13;;
58466;SDS011;44255;49.244;7.726;2023-03-23T20:33:29;24.23;;;18.60;;
58466;SDS011;44255;49.244;7.726;2023-03-23T20:35:55;24.60;;;14.73;;
58466;SDS011;44255;49.244;7.726;2023-03-23T20:38:21;29.33;;;17.85;;
58466;SDS011;44255;49.244;7.726;2023-03-23T20:40:49;25.70;;;15.25;;
58466;SDS011;44255;49.244;7.726;2023-03-23T20:43:14;25.85;;;15.13;;
58466;SDS011;44255;49.244;7.726;2023-03-23T20:45:39;23.80;;;16.03;;
58466;SDS011;44255;49.244;7.726;2023-03-23T20:48:05;24.67;;;15.90;;
58466;SDS011;44255;49.244;7.726;2023-03-23T20:50:30;27.67;;;14.75;;
58466;SDS011;44255;49.244;7.726;2023-03-23T20:52:55;29.47;;;17.53;;
58466;SDS011;44255;49.244;7.726;2023-03-23T20:55:21;23.33;;;15.10;;
58466;SDS011;44255;49.244;7.726;2023-03-23T20:57:47;22.63;;;13.40;;
58466;SDS011;44255;49.244;7.726;2023-03-23T21:00:13;22.33;;;13.15;;
58466;SDS011;44255;49.244;7.726;2023-03-23T21:02:40;21.70;;;13.10;;
58466;SDS011;44255;49.244;7.726;2023-03-23T21:05:06;19.63;;;13.15;;
58466;SDS011;44255;49.244;7.726;2023-03-23T21:07:32;19.65;;;12.88;;
58466;SDS011;44255;49.244;7.726;2023-03-23T21:09:57;18.50;;;11.77;;
58466;SDS011;44255;49.244;7.726;2023-03-23T21:12:22;20.23;;;11.88;;
58466;SDS011;44255;49.244;7.726;2023-03-23T21:14:47;17.33;;;12.10;;
58466;SDS011;44255;49.244;7.726;2023-03-23T21:17:13;16.17;;;11.20;;
58466;SDS011;44255;49.244;7.726;2023-03-23T21:19:38;20.37;;;13.37;;
58466;SDS011;44255;49.244;7.726;2023-03-23T21:22:03;21.27;;;12.90;;